Time;durP1;ratioP1;P1;durP2;ratioP2;P2;SDS_P1;SDS_P2;PMS_P1;PMS_P2;Temp;Humidity;BMP_temperature;BMP_pressure;BME280_temperature;BME280_humidity;BME280_pressure;Samples;Min_cycle;Max_cycle;Signal;HPM_P1;HPM_P2
2022/05/30 00:00:15;;;;;;;;;;;;;;;25.31;49.64;97792.78;2082982;28;19970;-54
2022/05/30 00:01:20;;;;;;;;;;;;;;;25.30;49.89;97789.25;2079351;28;19932;-53
2022/05/30 00:02:21;;;;;;;;;;;;;;;25.30;49.22;97786.53;2081680;28;19929;-54
2022/05/30 00:03:22;;;;;;;;;;;;;;;25.29;49.00;97784.09;2079685;28;19928;-55
2022/05/30 00:04:23;;;;;;;;;;;;;;;25.29;49.10;97778.66;2084657;28;19935;-55
2022/05/30 00:05:25;;;;;;;;;;;;;;;25.31;48.85;97768.34;2083692;28;28645;-54
2022/05/30 00:06:29;;;;;;;;;;;;;;;25.32;49.37;97781.63;2082017;28;19928;-55
2022/05/30 00:07:29;;;;;;;;;;;;;;;25.33;49.28;97768.91;2081512;28;19990;-56
2022/05/30 00:08:31;;;;;;;;;;;;;;;25.32;49.29;97776.22;2084622;28;19933;-55
2022/05/30 00:09:33;;;;;;;;;;;;;;;25.33;49.43;97766.19;2081691;28;19928;-56
2022/05/30 00:10:34;;;;;;;;;;;;;;;25.34;49.49;97773.25;2081732;28;21024;-55
2022/05/30 00:11:36;;;;;;;;;;;;;;;25.34;49.39;97770.53;2083810;28;19929;-55
2022/05/30 00:12:38;;;;;;;;;;;;;;;25.34;49.35;97779.47;2087336;28;19978;-55
2022/05/30 00:13:40;;;;;;;;;;;;;;;25.34;49.66;97778.66;2085090;28;20826;-55
2022/05/30 00:14:40;;;;;;;;;;;;;;;25.34;49.55;97773.25;2081127;28;20023;-53
2022/05/30 00:15:42;;;;;;;;;;;;;;;25.32;49.73;97770.78;2081381;28;20271;-52
2022/05/30 00:16:44;;;;;;;;;;;;;;;25.34;49.27;97773.25;2083199;28;19924;-52
2022/05/30 00:17:46;;;;;;;;;;;;;;;25.35;49.43;97769.44;2082791;28;19972;-54
2022/05/30 00:18:46;;;;;;;;;;;;;;;25.32;49.90;97765.34;2083711;28;19990;-55
2022/05/30 00:19:48;;;;;;;;;;;;;;;25.31;49.75;97763.72;2079402;28;19933;-52
2022/05/30 00:20:49;;;;;;;;;;;;;;;25.30;49.82;97772.16;2081604;28;20415;-56
2022/05/30 00:21:52;;;;;;;;;;;;;;;25.31;50.12;97769.16;2079259;28;19932;-55
2022/05/30 00:22:53;;;;;;;;;;;;;;;25.33;49.74;97766.19;2084110;28;19928;-52
2022/05/30 00:23:54;;;;;;;;;;;;;;;25.33;49.63;97766.19;2089190;28;20718;-51
2022/05/30 00:24:55;;;;;;;;;;;;;;;25.34;50.07;97762.38;2082602;28;19964;-57
2022/05/30 00:25:57;;;;;;;;;;;;;;;25.33;49.43;97760.75;2083469;28;19933;-54
2022/05/30 00:26:57;;;;;;;;;;;;;;;25.33;49.97;97758.84;2080578;28;19935;-55
2022/05/30 00:27:59;;;;;;;;;;;;;;;25.33;49.82;97760.75;2081799;28;19931;-54
2022/05/30 00:28:59;;;;;;;;;;;;;;;25.34;50.13;97768.63;2082306;28;19952;-56
2022/05/30 00:30:01;;;;;;;;;;;;;;;25.32;49.99;97754.50;2080630;28;20279;-51
2022/05/30 00:31:03;;;;;;;;;;;;;;;25.31;49.96;97755.59;2086905;28;20378;-53
2022/05/30 00:32:06;;;;;;;;;;;;;;;25.32;50.11;97756.41;2084820;28;20349;-53
2022/05/30 00:33:07;;;;;;;;;;;;;;;25.31;49.96;97758.31;2081815;28;19940;-55
2022/05/30 00:34:08;;;;;;;;;;;;;;;25.31;50.17;97757.50;2084265;28;19932;-54
2022/05/30 00:35:10;;;;;;;;;;;;;;;25.31;50.31;97757.50;2084085;28;19935;-54
2022/05/30 00:36:12;;;;;;;;;;;;;;;25.30;50.42;97756.69;2081162;28;19929;-53
2022/05/30 00:37:12;;;;;;;;;;;;;;;25.31;50.39;97752.06;2083860;28;19924;-56
2022/05/30 00:38:14;;;;;;;;;;;;;;;25.31;50.20;97757.50;2080595;28;20407;-56
2022/05/30 00:39:15;;;;;;;;;;;;;;;25.32;50.62;97761.81;2079325;28;20417;-51
2022/05/30 00:40:16;;;;;;;;;;;;;;;25.31;50.58;97762.91;2083769;28;19933;-53
2022/05/30 00:41:17;;;;;;;;;;;;;;;25.31;50.33;97766.44;2083060;28;19929;-53
2022/05/30 00:42:20;;;;;;;;;;;;;;;25.31;50.52;97762.91;2083046;28;20442;-55
2022/05/30 00:43:23;;;;;;;;;;;;;;;25.32;50.49;97764.53;2081643;28;19925;-55
2022/05/30 00:44:24;;;;;;;;;;;;;;;25.31;50.74;97760.22;2079366;28;19936;-54
2022/05/30 00:45:25;;;;;;;;;;;;;;;25.30;50.82;97762.13;2083034;28;19933;-52
2022/05/30 00:46:26;;;;;;;;;;;;;;;25.30;50.45;97755.88;2082479;28;19976;-55
2022/05/30 00:47:28;;;;;;;;;;;;;;;25.30;50.73;97764.00;2087125;28;20019;-54
2022/05/30 00:48:31;;;;;;;;;;;;;;;25.31;50.36;97763.72;2081407;28;19933;-51
2022/05/30 00:49:34;;;;;;;;;;;;;;;25.31;50.37;97762.91;2082264;28;20015;-51
2022/05/30 00:50:36;;;;;;;;;;;;;;;25.29;50.61;97760.47;2081576;28;19933;-55
2022/05/30 00:51:39;;;;;;;;;;;;;;;25.30;50.35;97766.72;2080810;28;19929;-54
2022/05/30 00:52:42;;;;;;;;;;;;;;;25.29;50.77;97760.47;2083333;28;19935;-56
2022/05/30 00:53:44;;;;;;;;;;;;;;;25.29;50.92;97765.09;2086103;28;19979;-55
2022/05/30 00:54:48;;;;;;;;;;;;;;;25.28;50.70;97758.84;2086650;28;19959;-55
2022/05/30 00:55:49;;;;;;;;;;;;;;;25.28;50.52;97752.59;2084284;28;19979;-55
2022/05/30 00:56:54;;;;;;;;;;;;;;;25.30;50.59;97761.31;2080693;28;20429;-53
2022/05/30 00:57:55;;;;;;;;;;;;;;;25.29;50.68;97759.66;2089163;28;19931;-52
2022/05/30 00:58:57;;;;;;;;;;;;;;;25.27;50.61;97759.09;2084022;28;19939;-54
2022/05/30 00:59:59;;;;;;;;;;;;;;;25.28;50.91;97752.59;2088722;28;19925;-54
2022/05/30 01:01:01;;;;;;;;;;;;;;;25.28;51.05;97756.13;2081623;28;19943;-52
2022/05/30 01:02:03;;;;;;;;;;;;;;;25.29;50.93;97756.94;2083966;28;19976;-55
2022/05/30 01:07:04;;;;;;;;;;;;;;;25.28;50.96;97747.97;2078579;28;19928;-51
2022/05/30 01:08:05;;;;;;;;;;;;;;;25.28;50.94;97747.19;2081915;28;20062;-55
2022/05/30 01:09:09;;;;;;;;;;;;;;;25.27;50.83;97750.97;2080274;28;20062;-56
2022/05/30 01:10:10;;;;;;;;;;;;;;;25.26;50.84;97750.16;2085317;28;19939;-54
2022/05/30 01:11:12;;;;;;;;;;;;;;;25.26;51.03;97749.34;2081691;28;19940;-54
2022/05/30 01:12:13;;;;;;;;;;;;;;;25.26;50.78;97752.84;2078395;28;19924;-53
2022/05/30 01:13:14;;;;;;;;;;;;;;;25.26;50.67;97744.72;2082504;28;20505;-52
2022/05/30 01:14:15;;;;;;;;;;;;;;;25.27;50.76;97746.38;2082493;28;19948;-54
2022/05/30 01:15:17;;;;;;;;;;;;;;;25.27;50.53;97748.25;2083477;28;20015;-56
2022/05/30 01:16:19;;;;;;;;;;;;;;;25.26;50.24;97749.34;2081101;28;19935;-56
2022/05/30 01:17:21;;;;;;;;;;;;;;;25.24;50.29;97752.34;2078284;28;19985;-56
2022/05/30 01:18:23;;;;;;;;;;;;;;;25.25;50.25;97747.72;2084119;28;19929;-53
2022/05/30 01:19:42;;;;;;;;;;;;;;;25.23;49.81;97745.25;2080906;28;19928;-54
2022/05/30 01:20:48;;;;;;;;;;;;;;;25.24;50.43;97746.06;2086715;28;20482;-52
2022/05/30 01:21:56;;;;;;;;;;;;;;;25.23;50.30;97739.03;2080700;28;19936;-53
2022/05/30 01:23:31;;;;;;;;;;;;;;;25.24;50.41;97751.50;2077800;28;19968;-57
2022/05/30 01:24:43;;;;;;;;;;;;;;;25.24;50.44;97746.91;2052810;28;19934;-54
2022/05/30 01:25:55;;;;;;;;;;;;;;;25.25;50.33;97745.81;2049298;28;19937;-56
2022/05/30 01:27:04;;;;;;;;;;;;;;;25.26;50.09;97743.91;2047215;28;19930;-52
2022/05/30 01:28:10;;;;;;;;;;;;;;;25.25;50.46;97743.09;2050945;28;19930;-52
2022/05/30 01:29:17;;;;;;;;;;;;;;;25.24;50.27;97738.75;2050091;28;19941;-56
2022/05/30 01:30:18;;;;;;;;;;;;;;;25.23;50.23;97745.25;2064981;28;19929;-52
2022/05/30 01:31:19;;;;;;;;;;;;;;;25.24;50.65;97741.47;2080901;28;19925;-55
2022/05/30 01:32:21;;;;;;;;;;;;;;;25.24;50.51;97736.06;2081229;28;19925;-56
2022/05/30 01:33:23;;;;;;;;;;;;;;;25.23;50.41;97733.59;2084641;28;19936;-55
2022/05/30 01:34:24;;;;;;;;;;;;;;;25.24;50.30;97743.34;2079367;28;19932;-53
2022/05/30 01:35:27;;;;;;;;;;;;;;;25.23;50.35;97744.44;2082808;28;20294;-54
2022/05/30 01:36:29;;;;;;;;;;;;;;;25.24;50.29;97743.34;2080534;28;19936;-57
2022/05/30 01:37:30;;;;;;;;;;;;;;;25.24;50.30;97746.06;2083455;28;20374;-55
2022/05/30 01:38:31;;;;;;;;;;;;;;;25.24;50.59;97748.78;2081433;28;19989;-57
2022/05/30 01:39:32;;;;;;;;;;;;;;;25.25;50.51;97745.00;2083682;28;19995;-56
2022/05/30 01:40:33;;;;;;;;;;;;;;;25.23;50.48;97747.97;2084058;28;21096;-52
2022/05/30 01:41:35;;;;;;;;;;;;;;;25.23;50.60;97749.88;2082059;28;19940;-56
2022/05/30 01:42:35;;;;;;;;;;;;;;;25.22;50.12;97742.81;2082516;28;19928;-53
2022/05/30 01:43:37;;;;;;;;;;;;;;;25.22;50.04;97740.13;2080886;28;20536;-56
2022/05/30 01:44:40;;;;;;;;;;;;;;;25.22;50.44;97750.97;2077569;28;19979;-56
2022/05/30 01:45:40;;;;;;;;;;;;;;;25.21;50.12;97742.00;2085126;28;19935;-55
2022/05/30 01:46:42;;;;;;;;;;;;;;;25.21;50.38;97749.31;2082259;28;19963;-53
2022/05/30 01:47:43;;;;;;;;;;;;;;;25.20;50.62;97748.50;2083197;28;19936;-55
2022/05/30 01:48:45;;;;;;;;;;;;;;;25.21;50.53;97744.69;2081674;28;19928;-52
2022/05/30 01:49:46;;;;;;;;;;;;;;;25.22;50.81;97742.81;2079998;28;19928;-56
2022/05/30 01:50:47;;;;;;;;;;;;;;;25.21;50.70;97746.59;2083340;28;20386;-54
2022/05/30 01:51:48;;;;;;;;;;;;;;;25.21;50.91;97741.19;2081271;28;19928;-50
2022/05/30 01:52:50;;;;;;;;;;;;;;;25.21;50.74;97741.19;2081572;28;20516;-52
2022/05/30 01:53:50;;;;;;;;;;;;;;;25.19;51.08;97745.00;2081637;28;19932;-56
2022/05/30 01:54:52;;;;;;;;;;;;;;;25.19;50.81;97742.28;2085950;28;19939;-55
2022/05/30 01:55:53;;;;;;;;;;;;;;;25.19;50.81;97739.56;2086796;28;19940;-56
2022/05/30 01:56:54;;;;;;;;;;;;;;;25.19;51.09;97741.47;2081946;28;20312;-56
2022/05/30 01:57:55;;;;;;;;;;;;;;;25.19;50.92;97746.91;2077581;28;19925;-54
2022/05/30 01:58:56;;;;;;;;;;;;;;;25.19;50.88;97739.56;2082156;28;19974;-53
2022/05/30 01:59:58;;;;;;;;;;;;;;;25.18;51.23;97743.38;2078430;28;19929;-53
2022/05/30 02:01:00;;;;;;;;;;;;;;;25.19;51.09;97734.13;2080362;28;20202;-55
2022/05/30 02:02:02;;;;;;;;;;;;;;;25.19;50.93;97741.47;2081222;28;23850;-55
2022/05/30 02:03:03;;;;;;;;;;;;;;;25.18;51.22;97737.94;2082270;28;19936;-56
2022/05/30 02:04:05;;;;;;;;;;;;;;;25.19;51.12;97738.75;2082715;28;20051;-52
2022/05/30 02:05:06;;;;;;;;;;;;;;;25.21;51.34;97735.75;2082035;28;19928;-54
2022/05/30 02:06:08;;;;;;;;;;;;;;;25.19;51.17;97739.56;2083149;28;19928;-53
2022/05/30 02:07:09;;;;;;;;;;;;;;;25.18;51.07;97737.94;2081301;28;19933;-56
2022/05/30 02:08:10;;;;;;;;;;;;;;;25.18;51.36;97737.94;2079948;28;19933;-54
2022/05/30 02:09:11;;;;;;;;;;;;;;;25.19;51.54;97741.47;2083001;28;20878;-56
2022/05/30 02:10:12;;;;;;;;;;;;;;;25.18;51.23;97737.09;2081853;28;19935;-53
2022/05/30 02:11:14;;;;;;;;;;;;;;;25.17;51.75;97733.56;2081613;28;20448;-53
2022/05/30 02:12:14;;;;;;;;;;;;;;;25.17;51.29;97725.44;2082854;28;19939;-54
2022/05/30 02:13:16;;;;;;;;;;;;;;;25.18;51.45;97731.69;2080223;28;20070;-56
2022/05/30 02:14:16;;;;;;;;;;;;;;;25.19;51.34;97736.84;2083220;28;19937;-52
2022/05/30 02:15:19;;;;;;;;;;;;;;;25.19;51.32;97734.13;2083257;28;19929;-53
2022/05/30 02:17:35;;;;;;;;;;;;;;;25.19;51.32;97734.13;2067519;28;19936;-57
2022/05/30 02:18:36;;;;;;;;;;;;;;;25.19;51.63;97738.75;2080315;28;20348;-56
2022/05/30 02:19:38;;;;;;;;;;;;;;;25.19;51.59;97738.75;2086285;28;20806;-55
2022/05/30 02:20:41;;;;;;;;;;;;;;;25.17;51.41;97738.19;2084489;28;20298;-55
2022/05/30 02:21:43;;;;;;;;;;;;;;;25.18;51.54;97740.66;2082752;28;19968;-54
2022/05/30 02:22:45;;;;;;;;;;;;;;;25.18;51.48;97747.97;2080928;28;19949;-51
2022/05/30 02:23:45;;;;;;;;;;;;;;;25.18;51.67;97746.09;2081869;28;19971;-54
2022/05/30 02:24:48;;;;;;;;;;;;;;;25.18;51.47;97747.97;2082781;28;20387;-52
2022/05/30 02:25:49;;;;;;;;;;;;;;;25.16;51.39;97740.09;2084606;28;20418;-51
2022/05/30 02:26:50;;;;;;;;;;;;;;;25.17;51.80;97746.34;2083883;28;19932;-56
2022/05/30 02:27:51;;;;;;;;;;;;;;;25.16;51.61;97737.38;2083853;28;19932;-54
2022/05/30 02:28:53;;;;;;;;;;;;;;;25.18;51.91;97739.81;2080547;28;19935;-55
2022/05/30 02:29:53;;;;;;;;;;;;;;;25.16;51.58;97739.28;2082900;28;20008;-51
2022/05/30 02:30:57;;;;;;;;;;;;;;;25.16;51.57;97739.28;2083254;28;19929;-54
2022/05/30 02:31:57;;;;;;;;;;;;;;;25.14;51.70;97746.84;2080374;28;19956;-54
2022/05/30 02:36:52;;;;;;;;;;;;;;;25.15;51.83;97749.31;2080578;28;19936;-56
2022/05/30 02:37:53;;;;;;;;;;;;;;;25.15;51.71;97754.72;2082163;28;19936;-56
2022/05/30 02:38:54;;;;;;;;;;;;;;;25.15;51.59;97756.63;2085538;28;19990;-54
2022/05/30 02:39:55;;;;;;;;;;;;;;;25.16;51.87;97766.44;2080711;28;19935;-55
2022/05/30 02:40:56;;;;;;;;;;;;;;;25.15;51.86;97754.72;2084809;28;19935;-56
2022/05/30 02:41:57;;;;;;;;;;;;;;;25.14;51.82;97761.25;2081902;28;20790;-53
2022/05/30 02:42:58;;;;;;;;;;;;;;;25.15;51.78;97760.16;2086426;28;19955;-57
2022/05/30 02:43:59;;;;;;;;;;;;;;;25.14;51.82;97763.13;2085358;28;20682;-54
2022/05/30 02:45:00;;;;;;;;;;;;;;;25.14;51.87;97766.69;2081798;28;19944;-54
2022/05/30 02:46:02;;;;;;;;;;;;;;;25.14;51.99;97763.97;2081526;28;19972;-51
2022/05/30 02:47:05;;;;;;;;;;;;;;;25.15;51.85;97764.78;2080045;28;19936;-54
2022/05/30 02:48:05;;;;;;;;;;;;;;;25.14;51.87;97768.56;2083165;28;19968;-54
2022/05/30 02:49:08;;;;;;;;;;;;;;;25.13;52.04;97767.75;2083108;28;20295;-54
2022/05/30 02:50:10;;;;;;;;;;;;;;;25.14;52.24;97777.53;2079089;28;19928;-55
2022/05/30 02:51:10;;;;;;;;;;;;;;;25.11;52.11;97767.19;2078829;28;19932;-54
2022/05/30 02:52:12;;;;;;;;;;;;;;;25.13;52.09;97766.91;2080364;28;19994;-52
2022/05/30 02:53:12;;;;;;;;;;;;;;;25.12;52.12;97774.22;2085822;28;19976;-54
2022/05/30 02:54:14;;;;;;;;;;;;;;;25.11;52.17;97775.31;2089111;28;19924;-55
2022/05/30 02:55:15;;;;;;;;;;;;;;;25.11;52.46;97777.22;2079915;28;19928;-54
2022/05/30 02:56:17;;;;;;;;;;;;;;;25.11;52.14;97778.03;2082100;28;20399;-55
2022/05/30 02:57:17;;;;;;;;;;;;;;;25.11;52.12;97780.75;2079583;28;19939;-54
2022/05/30 02:58:19;;;;;;;;;;;;;;;25.10;52.33;97779.13;2080297;28;19932;-54
2022/05/30 02:59:21;;;;;;;;;;;;;;;25.11;52.14;97778.03;2080523;28;19933;-52
2022/05/30 03:00:21;;;;;;;;;;;;;;;25.11;52.34;97782.66;2078942;28;19939;-55
2022/05/30 03:01:24;;;;;;;;;;;;;;;25.10;52.04;97784.56;2081806;28;19979;-54
2022/05/30 03:02:25;;;;;;;;;;;;;;;25.10;52.29;97784.56;2081090;28;19942;-54
2022/05/30 03:03:27;;;;;;;;;;;;;;;25.11;52.44;97788.91;2081091;28;19939;-54
2022/05/30 03:04:27;;;;;;;;;;;;;;;25.10;52.22;97789.16;2078252;28;20428;-52
2022/05/30 03:05:30;;;;;;;;;;;;;;;25.10;52.42;97791.84;2081578;28;19935;-55
2022/05/30 03:06:31;;;;;;;;;;;;;;;25.11;52.52;97790.78;2080245;28;20051;-55
2022/05/30 03:07:32;;;;;;;;;;;;;;;25.11;52.15;97791.59;2081657;28;20311;-54
2022/05/30 03:08:33;;;;;;;;;;;;;;;25.11;52.29;97793.50;2071458;28;19967;-54
2022/05/30 03:09:34;;;;;;;;;;;;;;;25.10;52.39;97800.84;2073835;28;19928;-54
2022/05/30 03:10:35;;;;;;;;;;;;;;;25.10;52.21;97800.00;2077052;28;20626;-55
2022/05/30 03:11:37;;;;;;;;;;;;;;;25.09;52.38;97795.66;2081185;28;20527;-53
2022/05/30 03:12:37;;;;;;;;;;;;;;;25.07;52.29;97801.34;2081627;28;19967;-54
2022/05/30 03:13:39;;;;;;;;;;;;;;;25.07;52.31;97798.63;2080483;28;19925;-54
2022/05/30 03:14:40;;;;;;;;;;;;;;;25.07;52.74;97801.34;2075990;28;20593;-54
2022/05/30 03:15:41;;;;;;;;;;;;;;;25.05;52.42;97800.81;2079360;28;19929;-54
2022/05/30 03:16:43;;;;;;;;;;;;;;;25.06;52.70;97799.72;2083210;28;19925;-55
2022/05/30 03:17:45;;;;;;;;;;;;;;;25.08;52.48;97804.91;2079623;28;20342;-54
2022/05/30 03:18:45;;;;;;;;;;;;;;;25.08;52.37;97802.19;2079037;28;19939;-53
2022/05/30 03:19:47;;;;;;;;;;;;;;;25.08;52.54;97796.75;2080882;28;19937;-53
2022/05/30 03:20:47;;;;;;;;;;;;;;;25.08;52.42;97800.28;2078744;28;20441;-54
2022/05/30 03:21:49;;;;;;;;;;;;;;;25.09;52.51;97795.66;2079484;28;19931;-54
2022/05/30 03:22:50;;;;;;;;;;;;;;;25.09;52.48;97803.81;2082679;28;19932;-54
2022/05/30 03:23:53;;;;;;;;;;;;;;;25.08;52.62;97802.19;2082184;28;19938;-53
2022/05/30 03:24:53;;;;;;;;;;;;;;;25.06;52.71;97799.72;2085141;28;19986;-53
2022/05/30 03:25:55;;;;;;;;;;;;;;;25.06;52.40;97798.91;2079036;28;19928;-53
2022/05/30 03:26:55;;;;;;;;;;;;;;;25.06;52.42;97796.19;2085673;28;19933;-55
2022/05/30 03:27:57;;;;;;;;;;;;;;;25.05;52.63;97803.53;2077451;28;19935;-54
2022/05/30 03:28:58;;;;;;;;;;;;;;;25.04;52.40;97807.31;2082946;28;19935;-52
2022/05/30 03:29:59;;;;;;;;;;;;;;;25.05;52.76;97803.53;2078992;28;19928;-54
2022/05/30 03:31:01;;;;;;;;;;;;;;;25.05;52.55;97803.53;2083640;28;19972;-52
2022/05/30 03:32:04;;;;;;;;;;;;;;;25.04;52.42;97804.59;2079970;28;19928;-53
2022/05/30 03:33:05;;;;;;;;;;;;;;;25.03;52.73;97811.09;2083255;28;19936;-53
2022/05/30 03:34:06;;;;;;;;;;;;;;;25.04;52.59;97807.31;2082178;28;19933;-55
2022/05/30 03:35:07;;;;;;;;;;;;;;;25.03;52.71;97807.59;2079799;28;21941;-55
2022/05/30 03:36:14;;;;;;;;;;;;;;;25.04;52.67;97810.00;2078293;28;19936;-53
2022/05/30 03:37:14;;;;;;;;;;;;;;;25.04;52.77;97807.31;2075429;28;19935;-55
2022/05/30 03:38:16;;;;;;;;;;;;;;;25.02;52.48;97806.78;2082089;28;19963;-52
2022/05/30 03:39:17;;;;;;;;;;;;;;;25.03;52.70;97808.41;2083277;28;19940;-55
2022/05/30 03:40:18;;;;;;;;;;;;;;;25.03;52.64;97813.81;2082210;28;19935;-54
2022/05/30 03:41:19;;;;;;;;;;;;;;;25.03;52.43;97808.41;2080368;28;20362;-51
2022/05/30 03:42:20;;;;;;;;;;;;;;;25.06;52.54;97812.47;2083713;28;19933;-52
2022/05/30 03:43:21;;;;;;;;;;;;;;;25.02;52.50;97812.19;2086061;28;19996;-52
2022/05/30 03:44:23;;;;;;;;;;;;;;;25.04;52.65;97817.34;2087853;28;19941;-54
2022/05/30 03:45:23;;;;;;;;;;;;;;;25.02;52.76;97823.06;2081327;28;19933;-54
2022/05/30 03:46:25;;;;;;;;;;;;;;;25.02;52.76;97820.34;2086812;28;19935;-55
2022/05/30 03:47:27;;;;;;;;;;;;;;;25.03;52.54;97823.88;2078153;28;19964;-52
2022/05/30 03:48:28;;;;;;;;;;;;;;;25.04;52.49;97826.28;2085123;28;19971;-54
2022/05/30 03:49:29;;;;;;;;;;;;;;;25.01;52.73;97826.03;2080970;28;19940;-52
2022/05/30 03:50:31;;;;;;;;;;;;;;;25.00;52.58;97822.50;2088202;28;19928;-51
2022/05/30 03:51:32;;;;;;;;;;;;;;;25.03;52.71;97824.69;2080942;28;19944;-54
2022/05/30 03:52:34;;;;;;;;;;;;;;;25.03;52.62;97824.69;2080344;28;19936;-53
2022/05/30 03:53:34;;;;;;;;;;;;;;;25.00;52.59;97825.22;2085397;28;19959;-54
2022/05/30 03:54:36;;;;;;;;;;;;;;;24.99;52.51;97826.31;2085088;28;20285;-53
2022/05/30 03:55:37;;;;;;;;;;;;;;;24.99;52.73;97829.00;2082426;28;19929;-54
2022/05/30 03:56:39;;;;;;;;;;;;;;;24.98;52.54;97821.94;2087662;28;19936;-53
2022/05/30 03:57:40;;;;;;;;;;;;;;;24.99;52.60;97823.59;2082419;28;20443;-52
2022/05/30 03:58:41;;;;;;;;;;;;;;;25.00;52.65;97829.81;2081304;28;19935;-53
2022/05/30 03:59:42;;;;;;;;;;;;;;;24.99;52.74;97831.72;2084484;28;19928;-53
2022/05/30 04:00:44;;;;;;;;;;;;;;;24.98;52.75;97825.47;2079275;28;20318;-51
2022/05/30 04:01:46;;;;;;;;;;;;;;;24.98;52.92;97825.47;2080769;28;21482;-52
2022/05/30 04:02:48;;;;;;;;;;;;;;;25.00;52.77;97833.34;2083842;28;19972;-54
2022/05/30 04:03:50;;;;;;;;;;;;;;;25.00;52.61;97827.91;2078526;28;19932;-54
2022/05/30 04:04:50;;;;;;;;;;;;;;;24.98;52.83;97835.50;2080211;28;20383;-54
2022/05/30 04:05:52;;;;;;;;;;;;;;;25.00;52.65;97827.09;2084244;28;19976;-53
2022/05/30 04:06:52;;;;;;;;;;;;;;;24.98;52.67;97839.03;2082410;28;19963;-53
2022/05/30 04:07:54;;;;;;;;;;;;;;;24.99;52.74;97837.16;2080399;28;19931;-55
2022/05/30 04:08:55;;;;;;;;;;;;;;;24.99;52.66;97831.72;2081980;28;20985;-53
2022/05/30 04:09:57;;;;;;;;;;;;;;;25.00;52.74;97827.91;2082409;28;19933;-53
2022/05/30 04:10:57;;;;;;;;;;;;;;;25.00;52.80;97835.25;2080578;28;19996;-54
2022/05/30 04:11:59;;;;;;;;;;;;;;;25.02;52.96;97835.78;2081182;28;20643;-51
2022/05/30 04:13:00;;;;;;;;;;;;;;;24.98;53.00;97840.94;2085180;28;20314;-53
2022/05/30 04:14:02;;;;;;;;;;;;;;;25.00;52.56;97841.50;2081854;28;19940;-52
2022/05/30 04:15:03;;;;;;;;;;;;;;;24.98;52.75;97840.94;2083395;28;20654;-54
2022/05/30 04:16:08;;;;;;;;;;;;;;;24.97;53.00;97836.59;2081796;28;20019;-53
2022/05/30 04:17:09;;;;;;;;;;;;;;;24.95;52.91;97834.13;2083701;28;19933;-51
2022/05/30 04:18:12;;;;;;;;;;;;;;;24.96;52.85;97838.50;2077775;28;19943;-55
2022/05/30 04:19:13;;;;;;;;;;;;;;;24.97;52.66;97840.13;2085680;28;19928;-52
2022/05/30 04:20:15;;;;;;;;;;;;;;;24.98;52.89;97846.34;2082166;28;19928;-54
2022/05/30 04:21:17;;;;;;;;;;;;;;;24.98;52.99;97838.22;2081219;28;19929;-55
2022/05/30 04:22:18;;;;;;;;;;;;;;;24.96;52.65;97840.38;2081034;28;19967;-52
2022/05/30 04:23:19;;;;;;;;;;;;;;;24.94;52.80;97840.66;2084265;28;19944;-54
2022/05/30 04:24:20;;;;;;;;;;;;;;;24.95;53.10;97841.47;2087023;28;19929;-53
2022/05/30 04:25:22;;;;;;;;;;;;;;;24.96;52.92;97843.06;2081259;28;19971;-53
2022/05/30 04:26:22;;;;;;;;;;;;;;;24.95;52.79;97850.41;2086691;28;19928;-54
2022/05/30 04:27:24;;;;;;;;;;;;;;;24.96;53.00;97837.66;2082003;28;20015;-52
2022/05/30 04:28:26;;;;;;;;;;;;;;;24.96;52.77;97848.50;2081329;28;19931;-54
2022/05/30 04:29:28;;;;;;;;;;;;;;;24.96;52.92;97840.38;2086685;28;20020;-55
2022/05/30 04:30:30;;;;;;;;;;;;;;;24.96;52.93;97843.91;2080903;28;20028;-52
2022/05/30 04:31:30;;;;;;;;;;;;;;;24.96;52.69;97841.22;2079960;28;19960;-54
2022/05/30 04:32:32;;;;;;;;;;;;;;;24.97;52.79;97850.16;2083046;28;19925;-54
2022/05/30 04:33:34;;;;;;;;;;;;;;;24.97;52.92;97844.72;2082956;28;19939;-52
2022/05/30 04:34:37;;;;;;;;;;;;;;;24.97;52.75;97847.44;2082887;28;19925;-52
2022/05/30 04:35:37;;;;;;;;;;;;;;;24.96;53.09;97851.22;2083986;28;20007;-53
2022/05/30 04:36:39;;;;;;;;;;;;;;;24.95;52.96;97847.69;2081313;28;20402;-54
2022/05/30 04:37:39;;;;;;;;;;;;;;;24.95;52.91;97850.41;2085680;28;19928;-52
2022/05/30 04:38:41;;;;;;;;;;;;;;;24.94;52.96;97851.50;2081526;28;19928;-53
2022/05/30 04:39:42;;;;;;;;;;;;;;;24.95;52.84;97861.25;2082451;28;19929;-51
2022/05/30 04:40:44;;;;;;;;;;;;;;;24.96;53.03;97856.63;2084939;28;19967;-53
2022/05/30 04:41:44;;;;;;;;;;;;;;;24.94;53.04;97859.63;2079389;28;19968;-54
2022/05/30 04:42:46;;;;;;;;;;;;;;;24.95;52.70;97857.72;2082633;28;20055;-53
2022/05/30 04:43:46;;;;;;;;;;;;;;;24.94;52.73;97859.63;2085262;28;19971;-54
2022/05/30 04:44:48;;;;;;;;;;;;;;;24.96;52.92;97859.34;2082933;28;19929;-51
2022/05/30 04:46:01;;;;;;;;;;;;;;;24.95;52.85;97861.25;2079423;28;19975;-53
2022/05/30 04:47:03;;;;;;;;;;;;;;;24.94;52.85;97862.34;2084458;28;20535;-53
2022/05/30 04:48:04;;;;;;;;;;;;;;;24.95;52.91;97860.44;2087498;28;19924;-54
2022/05/30 04:49:07;;;;;;;;;;;;;;;24.95;52.81;97860.44;2085286;28;19928;-53
2022/05/30 04:50:13;;;;;;;;;;;;;;;24.94;52.88;97861.53;2078784;28;20040;-54
2022/05/30 04:51:14;;;;;;;;;;;;;;;24.93;53.08;97865.31;2083615;28;20609;-53
2022/05/30 04:52:16;;;;;;;;;;;;;;;24.91;52.96;97862.88;2083773;28;19964;-54
2022/05/30 04:53:16;;;;;;;;;;;;;;;24.93;52.81;97868.03;2078104;28;21855;-51
2022/05/30 04:54:18;;;;;;;;;;;;;;;24.92;53.01;97869.94;2084009;28;19929;-53
2022/05/30 04:55:21;;;;;;;;;;;;;;;24.94;52.93;97869.69;2078999;28;19975;-51
2022/05/30 04:56:21;;;;;;;;;;;;;;;24.93;52.95;97862.59;2085678;28;19933;-53
2022/05/30 04:57:23;;;;;;;;;;;;;;;24.92;52.98;97871.81;2083071;28;19935;-51
2022/05/30 04:58:24;;;;;;;;;;;;;;;24.92;52.83;97874.53;2081780;28;19966;-54
2022/05/30 04:59:26;;;;;;;;;;;;;;;24.92;52.90;97871.81;2080364;28;20561;-54
2022/05/30 05:00:26;;;;;;;;;;;;;;;24.92;52.79;97886.19;2082984;28;19928;-52
2022/05/30 05:01:30;;;;;;;;;;;;;;;24.94;52.95;97885.94;2079132;28;20051;-52
2022/05/30 05:02:30;;;;;;;;;;;;;;;24.91;53.17;97884.59;2084115;28;19925;-51
2022/05/30 05:03:33;;;;;;;;;;;;;;;24.91;53.03;97887.28;2086419;28;19979;-56
2022/05/30 05:04:35;;;;;;;;;;;;;;;24.92;52.76;97890.81;2087086;28;20520;-53
2022/05/30 05:05:37;;;;;;;;;;;;;;;24.92;53.07;97882.69;2079654;28;19929;-56
2022/05/30 05:06:38;;;;;;;;;;;;;;;24.91;52.81;97892.72;2083410;28;19928;-56
2022/05/30 05:07:41;;;;;;;;;;;;;;;24.92;52.86;97890.81;2081511;28;19971;-53
2022/05/30 05:08:44;;;;;;;;;;;;;;;24.93;52.93;97892.44;2083180;28;19982;-53
2022/05/30 05:09:52;;;;;;;;;;;;;;;24.92;53.11;97896.25;2082472;28;20527;-57
2022/05/30 05:10:57;;;;;;;;;;;;;;;24.91;52.96;97895.44;2088681;28;19932;-54
2022/05/30 05:11:58;;;;;;;;;;;;;;;24.92;52.79;97901.66;2084580;28;19924;-57
2022/05/30 05:12:59;;;;;;;;;;;;;;;24.91;52.89;97902.75;2083085;28;19932;-52
2022/05/30 05:14:00;;;;;;;;;;;;;;;24.91;53.10;97906.28;2085733;28;20024;-54
2022/05/30 05:15:01;;;;;;;;;;;;;;;24.90;53.17;97907.34;2087295;28;20002;-52
2022/05/30 05:16:03;;;;;;;;;;;;;;;24.91;52.90;97905.47;2084816;28;19932;-55
2022/05/30 05:17:06;;;;;;;;;;;;;;;24.90;52.96;97895.69;2083288;28;19936;-55
2022/05/30 05:18:06;;;;;;;;;;;;;;;24.91;53.07;97910.91;2077607;28;20456;-56
2022/05/30 05:19:08;;;;;;;;;;;;;;;24.91;53.06;97905.47;2082995;28;19932;-56
2022/05/30 05:20:11;;;;;;;;;;;;;;;24.90;52.99;97904.63;2082637;28;19936;-53
2022/05/30 05:21:16;;;;;;;;;;;;;;;24.89;53.23;97902.19;2084405;28;19936;-56
2022/05/30 05:22:17;;;;;;;;;;;;;;;24.90;53.06;97903.81;2083729;28;19936;-53
2022/05/30 05:23:18;;;;;;;;;;;;;;;24.90;53.00;97901.09;2083865;28;20416;-55
2022/05/30 05:24:19;;;;;;;;;;;;;;;24.90;53.06;97911.94;2085362;28;19963;-53
2022/05/30 05:25:21;;;;;;;;;;;;;;;24.89;53.21;97913.03;2080898;28;20455;-54
2022/05/30 05:26:22;;;;;;;;;;;;;;;24.88;53.22;97906.81;2084027;28;19928;-54
2022/05/30 05:27:23;;;;;;;;;;;;;;;24.89;53.02;97905.72;2085370;28;19932;-54
2022/05/30 05:28:24;;;;;;;;;;;;;;;24.89;53.19;97904.91;2084596;28;20664;-52
2022/05/30 05:29:26;;;;;;;;;;;;;;;24.89;53.12;97908.44;2079838;28;19979;-51
2022/05/30 05:30:26;;;;;;;;;;;;;;;24.88;53.22;97906.00;2083869;28;20015;-54
2022/05/30 05:31:31;;;;;;;;;;;;;;;24.88;53.13;97906.81;2084542;28;20524;-53